Terminal Aerodrome Forecast
Issued by NWS

Home | Current Version | Previous Version | Text Only | Print | Product List | Glossary On
Versions: 1 2 3 4 5 6 7 8 9 10 11 12 13 14 15 16 17 18
000
FTAK31 PAFA 210525
TAFAUN
TAF
PAUN 210525Z 2106/2206 33006KT P6SM VCSH FEW070 BKN120
     FM211000 33008KT P6SM VCSH SCT040 OVC090
     FM211600 30010KT P6SM VCSH SCT040 BKN090
     FM212000 32013KT P6SM -SHRA SCT025 BKN040 OVC090
     FM220400 30008KT P6SM VCSH FEW025 SCT040 BKN090=

USA.gov is the U.S. government's official web portal to all federal, state and local government web resources and services.